sensor_id;sensor_type;location;lat;lon;timestamp;pressure;altitude;pressure_sealevel;temperature;humidity
74615;BME280;63121;51.458;-0.110;2022-09-24T00:00:41;101389.56;;;14.84;69.73
74615;BME280;63121;51.458;-0.110;2022-09-24T00:03:06;101392.22;;;14.82;69.33
74615;BME280;63121;51.458;-0.110;2022-09-24T00:05:39;101394.03;;;14.77;69.91
74615;BME280;63121;51.458;-0.110;2022-09-24T00:08:08;101391.78;;;14.59;70.85
74615;BME280;63121;51.458;-0.110;2022-09-24T00:10:41;101390.06;;;14.56;70.80
74615;BME280;63121;51.458;-0.110;2022-09-24T00:13:08;101395.22;;;14.59;71.24
74615;BME280;63121;51.458;-0.110;2022-09-24T00:15:43;101389.19;;;14.57;70.73
74615;BME280;63121;51.458;-0.110;2022-09-24T00:18:09;101391.84;;;14.51;71.01
74615;BME280;63121;51.458;-0.110;2022-09-24T00:20:36;101394.44;;;14.53;71.34
74615;BME280;63121;51.458;-0.110;2022-09-24T00:23:02;101392.81;;;14.44;71.69
74615;BME280;63121;51.458;-0.110;2022-09-24T00:25:28;101396.41;;;14.37;72.27
74615;BME280;63121;51.458;-0.110;2022-09-24T00:28:12;101385.16;;;14.38;71.89
74615;BME280;63121;51.458;-0.110;2022-09-24T00:30:39;101396.53;;;14.29;72.85
74615;BME280;63121;51.458;-0.110;2022-09-24T00:33:05;101393.13;;;14.26;73.09
74615;BME280;63121;51.458;-0.110;2022-09-24T00:35:32;101393.78;;;14.38;72.15
74615;BME280;63121;51.458;-0.110;2022-09-24T00:37:57;101405.28;;;14.23;73.19
74615;BME280;63121;51.458;-0.110;2022-09-24T00:40:31;101403.38;;;14.33;73.03
74615;BME280;63121;51.458;-0.110;2022-09-24T00:42:56;101394.81;;;14.28;72.83
74615;BME280;63121;51.458;-0.110;2022-09-24T00:45:22;101396.50;;;14.32;72.71
74615;BME280;63121;51.458;-0.110;2022-09-24T00:47:49;101394.84;;;14.25;73.34
74615;BME280;63121;51.458;-0.110;2022-09-24T00:52:49;101395.59;;;14.33;72.86
74615;BME280;63121;51.458;-0.110;2022-09-24T00:55:16;101393.91;;;14.32;73.07
74615;BME280;63121;51.458;-0.110;2022-09-24T00:57:44;101388.88;;;14.21;73.75
74615;BME280;63121;51.458;-0.110;2022-09-24T01:00:11;101395.25;;;13.97;74.83
74615;BME280;63121;51.458;-0.110;2022-09-24T01:02:38;101394.41;;;13.98;74.75
74615;BME280;63121;51.458;-0.110;2022-09-24T01:05:05;101395.09;;;14.08;74.64
74615;BME280;63121;51.458;-0.110;2022-09-24T01:07:30;101394.31;;;14.05;74.72
74615;BME280;63121;51.458;-0.110;2022-09-24T01:09:56;101398.69;;;14.01;75.02
74615;BME280;63121;51.458;-0.110;2022-09-24T01:15:23;101403.81;;;14.06;74.90
74615;BME280;63121;51.458;-0.110;2022-09-24T01:18:08;101399.44;;;14.08;75.17
74615;BME280;63121;51.458;-0.110;2022-09-24T01:20:50;101390.78;;;14.09;74.73
74615;BME280;63121;51.458;-0.110;2022-09-24T01:28:47;101390.00;;;14.03;74.82
74615;BME280;63121;51.458;-0.110;2022-09-24T01:31:38;101389.31;;;13.89;75.51
74615;BME280;63121;51.458;-0.110;2022-09-24T01:34:09;101390.16;;;13.91;75.60
74615;BME280;63121;51.458;-0.110;2022-09-24T01:36:38;101386.72;;;13.91;75.38
74615;BME280;63121;51.458;-0.110;2022-09-24T01:39:07;101383.59;;;13.66;76.78
74615;BME280;63121;51.458;-0.110;2022-09-24T01:41:34;101381.91;;;13.63;76.91
74615;BME280;63121;51.458;-0.110;2022-09-24T01:44:01;101381.75;;;13.74;76.52
74615;BME280;63121;51.458;-0.110;2022-09-24T01:46:29;101372.22;;;13.76;76.29
74615;BME280;63121;51.458;-0.110;2022-09-24T01:48:56;101364.34;;;13.82;76.11
74615;BME280;63121;51.458;-0.110;2022-09-24T01:51:26;101367.09;;;13.73;76.40
74615;BME280;63121;51.458;-0.110;2022-09-24T01:54:01;101361.13;;;13.66;76.78
74615;BME280;63121;51.458;-0.110;2022-09-24T01:56:36;101360.25;;;13.66;76.71
74615;BME280;63121;51.458;-0.110;2022-09-24T01:59:13;101366.41;;;13.60;76.65
74615;BME280;63121;51.458;-0.110;2022-09-24T02:01:49;101367.34;;;13.53;77.10
74615;BME280;63121;51.458;-0.110;2022-09-24T02:04:18;101373.34;;;13.55;76.86
74615;BME280;63121;51.458;-0.110;2022-09-24T02:06:50;101368.41;;;13.36;77.53
74615;BME280;63121;51.458;-0.110;2022-09-24T02:09:33;101374.47;;;13.37;77.54
74615;BME280;63121;51.458;-0.110;2022-09-24T02:12:04;101371.88;;;13.35;77.77
74615;BME280;63121;51.458;-0.110;2022-09-24T02:14:36;101373.41;;;13.52;77.10
74615;BME280;63121;51.458;-0.110;2022-09-24T02:17:08;101370.97;;;13.38;77.85
74615;BME280;63121;51.458;-0.110;2022-09-24T02:19:36;101370.06;;;13.44;77.37
74615;BME280;63121;51.458;-0.110;2022-09-24T02:22:05;101374.38;;;13.43;77.83
74615;BME280;63121;51.458;-0.110;2022-09-24T02:24:36;101370.69;;;13.59;77.19
74615;BME280;63121;51.458;-0.110;2022-09-24T02:27:04;101368.00;;;13.69;76.96
74615;BME280;63121;51.458;-0.110;2022-09-24T02:29:30;101375.88;;;13.61;76.95
74615;BME280;63121;51.458;-0.110;2022-09-24T02:31:56;101372.53;;;13.51;76.90
74615;BME280;63121;51.458;-0.110;2022-09-24T02:34:30;101375.38;;;13.33;77.88
74615;BME280;63121;51.458;-0.110;2022-09-24T02:37:06;101374.31;;;13.49;77.25
74615;BME280;63121;51.458;-0.110;2022-09-24T02:39:32;101366.94;;;13.83;76.32
74615;BME280;63121;51.458;-0.110;2022-09-24T02:41:58;101373.63;;;13.98;76.13
74615;BME280;63121;51.458;-0.110;2022-09-24T02:44:24;101373.47;;;14.11;75.14
74615;BME280;63121;51.458;-0.110;2022-09-24T02:46:50;101376.06;;;14.09;75.16
74615;BME280;63121;51.458;-0.110;2022-09-24T02:49:16;101367.53;;;14.01;75.23
74615;BME280;63121;51.458;-0.110;2022-09-24T02:51:42;101377.69;;;14.16;74.89
74615;BME280;63121;51.458;-0.110;2022-09-24T02:54:08;101370.69;;;14.23;74.70
74615;BME280;63121;51.458;-0.110;2022-09-24T02:56:35;101377.75;;;14.12;74.87
74615;BME280;63121;51.458;-0.110;2022-09-24T02:59:00;101367.53;;;14.02;75.02
74615;BME280;63121;51.458;-0.110;2022-09-24T03:01:27;101376.16;;;14.01;75.40
74615;BME280;63121;51.458;-0.110;2022-09-24T03:03:53;101369.19;;;14.07;75.58
74615;BME280;63121;51.458;-0.110;2022-09-24T03:06:18;101374.47;;;13.99;75.87
74615;BME280;63121;51.458;-0.110;2022-09-24T03:08:44;101367.50;;;14.04;75.23
74615;BME280;63121;51.458;-0.110;2022-09-24T03:11:10;101367.38;;;14.10;75.08
74615;BME280;63121;51.458;-0.110;2022-09-24T03:13:36;101367.44;;;14.07;75.46
74615;BME280;63121;51.458;-0.110;2022-09-24T03:16:03;101364.66;;;14.21;75.11
74615;BME280;63121;51.458;-0.110;2022-09-24T03:18:29;101361.22;;;14.19;75.09
74615;BME280;63121;51.458;-0.110;2022-09-24T03:21:03;101358.47;;;14.28;74.78
74615;BME280;63121;51.458;-0.110;2022-09-24T03:23:29;101360.16;;;14.29;74.51
74615;BME280;63121;51.458;-0.110;2022-09-24T03:25:55;101354.03;;;14.33;74.21
74615;BME280;63121;51.458;-0.110;2022-09-24T03:28:21;101351.69;;;14.18;75.00
74615;BME280;63121;51.458;-0.110;2022-09-24T03:30:47;101354.28;;;14.18;74.53
74615;BME280;63121;51.458;-0.110;2022-09-24T03:33:34;101359.66;;;14.06;75.09
74615;BME280;63121;51.458;-0.110;2022-09-24T03:38:28;101353.97;;;13.80;76.00
74615;BME280;63121;51.458;-0.110;2022-09-24T03:40:55;101347.28;;;13.66;76.74
74615;BME280;63121;51.458;-0.110;2022-09-24T03:43:21;101358.56;;;13.61;76.78
74615;BME280;63121;51.458;-0.110;2022-09-24T03:45:46;101355.22;;;13.53;76.82
74615;BME280;63121;51.458;-0.110;2022-09-24T03:48:14;101353.66;;;13.43;77.53
74615;BME280;63121;51.458;-0.110;2022-09-24T03:50:40;101351.84;;;13.47;77.45
74615;BME280;63121;51.458;-0.110;2022-09-24T03:53:06;101353.75;;;13.34;77.68
74615;BME280;63121;51.458;-0.110;2022-09-24T03:55:31;101361.56;;;13.28;78.04
74615;BME280;63121;51.458;-0.110;2022-09-24T03:57:57;101359.84;;;13.30;78.00
74615;BME280;63121;51.458;-0.110;2022-09-24T04:00:22;101360.81;;;13.18;78.19
74615;BME280;63121;51.458;-0.110;2022-09-24T04:02:48;101354.75;;;13.19;78.27
74615;BME280;63121;51.458;-0.110;2022-09-24T04:05:14;101365.13;;;13.17;78.27
74615;BME280;63121;51.458;-0.110;2022-09-24T04:07:42;101370.34;;;13.16;78.13
74615;BME280;63121;51.458;-0.110;2022-09-24T04:10:07;101375.50;;;13.17;78.20
74615;BME280;63121;51.458;-0.110;2022-09-24T04:12:33;101376.44;;;13.10;78.37
74615;BME280;63121;51.458;-0.110;2022-09-24T04:14:58;101374.84;;;12.98;78.54
74615;BME280;63121;51.458;-0.110;2022-09-24T04:17:26;101378.25;;;13.04;78.24
74615;BME280;63121;51.458;-0.110;2022-09-24T04:19:56;101379.06;;;13.09;77.84
74615;BME280;63121;51.458;-0.110;2022-09-24T04:22:22;101377.44;;;12.98;78.46
74615;BME280;63121;51.458;-0.110;2022-09-24T04:24:47;101378.34;;;12.94;78.24
74615;BME280;63121;51.458;-0.110;2022-09-24T04:27:12;101374.09;;;12.87;78.66
74615;BME280;63121;51.458;-0.110;2022-09-24T04:29:38;101377.59;;;12.83;78.80
74615;BME280;63121;51.458;-0.110;2022-09-24T04:32:03;101381.94;;;12.82;78.54
74615;BME280;63121;51.458;-0.110;2022-09-24T04:34:28;101380.25;;;12.75;78.75
74615;BME280;63121;51.458;-0.110;2022-09-24T04:36:54;101380.19;;;12.83;77.90
74615;BME280;63121;51.458;-0.110;2022-09-24T04:39:19;101381.09;;;12.77;77.91
74615;BME280;63121;51.458;-0.110;2022-09-24T04:41:50;101375.97;;;12.74;78.00
74615;BME280;63121;51.458;-0.110;2022-09-24T04:44:16;101375.88;;;12.82;77.92
74615;BME280;63121;51.458;-0.110;2022-09-24T04:46:41;101375.84;;;12.84;77.61
74615;BME280;63121;51.458;-0.110;2022-09-24T04:49:08;101381.09;;;12.80;77.57
74615;BME280;63121;51.458;-0.110;2022-09-24T04:51:33;101371.56;;;12.81;77.27
74615;BME280;63121;51.458;-0.110;2022-09-24T04:54:00;101381.06;;;12.82;77.05
74615;BME280;63121;51.458;-0.110;2022-09-24T04:56:27;101382.78;;;12.85;76.81
74615;BME280;63121;51.458;-0.110;2022-09-24T04:58:52;101387.16;;;12.76;76.97
74615;BME280;63121;51.458;-0.110;2022-09-24T05:01:18;101392.50;;;12.61;77.75
74615;BME280;63121;51.458;-0.110;2022-09-24T05:03:44;101385.72;;;12.46;77.24
74615;BME280;63121;51.458;-0.110;2022-09-24T05:06:10;101389.16;;;12.47;77.25
74615;BME280;63121;51.458;-0.110;2022-09-24T05:08:36;101384.88;;;12.44;77.17
74615;BME280;63121;51.458;-0.110;2022-09-24T05:11:01;101381.38;;;12.45;76.99
74615;BME280;63121;51.458;-0.110;2022-09-24T05:13:27;101381.38;;;12.45;76.29
74615;BME280;63121;51.458;-0.110;2022-09-24T05:15:52;101393.41;;;12.55;76.01
74615;BME280;63121;51.458;-0.110;2022-09-24T05:18:18;101396.06;;;12.43;76.42
74615;BME280;63121;51.458;-0.110;2022-09-24T05:20:43;101395.22;;;12.44;75.78
74615;BME280;63121;51.458;-0.110;2022-09-24T05:23:09;101397.91;;;12.33;76.14
74615;BME280;63121;51.458;-0.110;2022-09-24T05:25:34;101399.56;;;12.37;75.98
74615;BME280;63121;51.458;-0.110;2022-09-24T05:28:20;101398.75;;;12.32;76.25
74615;BME280;63121;51.458;-0.110;2022-09-24T05:30:46;101401.31;;;12.37;76.08
74615;BME280;63121;51.458;-0.110;2022-09-24T05:33:12;101393.47;;;12.45;75.94
74615;BME280;63121;51.458;-0.110;2022-09-24T05:35:37;101407.31;;;12.42;75.77
74615;BME280;63121;51.458;-0.110;2022-09-24T05:38:02;101416.03;;;12.33;75.74
74615;BME280;63121;51.458;-0.110;2022-09-24T05:40:28;101418.63;;;12.30;76.45
74615;BME280;63121;51.458;-0.110;2022-09-24T05:43:25;101419.47;;;12.32;76.40
74615;BME280;63121;51.458;-0.110;2022-09-24T05:45:55;101420.28;;;12.37;75.96
74615;BME280;63121;51.458;-0.110;2022-09-24T05:48:23;101428.19;;;12.19;77.20
74615;BME280;63121;51.458;-0.110;2022-09-24T05:50:49;101427.28;;;12.25;76.70
74615;BME280;63121;51.458;-0.110;2022-09-24T05:53:20;101416.06;;;12.26;76.59
74615;BME280;63121;51.458;-0.110;2022-09-24T05:55:46;101422.13;;;12.20;76.58
74615;BME280;63121;51.458;-0.110;2022-09-24T05:58:12;101417.81;;;12.22;77.22
74615;BME280;63121;51.458;-0.110;2022-09-24T06:00:37;101424.69;;;12.26;76.33
74615;BME280;63121;51.458;-0.110;2022-09-24T06:03:12;101426.41;;;12.26;76.54
74615;BME280;63121;51.458;-0.110;2022-09-24T06:05:46;101436.78;;;12.24;76.18
74615;BME280;63121;51.458;-0.110;2022-09-24T06:08:14;101439.31;;;12.32;75.47
74615;BME280;63121;51.458;-0.110;2022-09-24T06:10:40;101438.44;;;12.33;75.62
74615;BME280;63121;51.458;-0.110;2022-09-24T06:13:06;101442.78;;;12.29;75.13
74615;BME280;63121;51.458;-0.110;2022-09-24T06:15:32;101447.91;;;12.40;74.65
74615;BME280;63121;51.458;-0.110;2022-09-24T06:17:59;101439.28;;;12.38;74.38
74615;BME280;63121;51.458;-0.110;2022-09-24T06:20:24;101450.50;;;12.40;74.35
74615;BME280;63121;51.458;-0.110;2022-09-24T06:22:50;101452.25;;;12.33;74.35
74615;BME280;63121;51.458;-0.110;2022-09-24T06:25:15;101456.53;;;12.40;74.14
74615;BME280;63121;51.458;-0.110;2022-09-24T06:27:40;101455.66;;;12.40;73.80
74615;BME280;63121;51.458;-0.110;2022-09-24T06:30:06;101453.00;;;12.48;73.34
74615;BME280;63121;51.458;-0.110;2022-09-24T06:32:32;101460.72;;;12.55;73.30
74615;BME280;63121;51.458;-0.110;2022-09-24T06:34:57;101464.16;;;12.57;73.26
74615;BME280;63121;51.458;-0.110;2022-09-24T06:37:22;101459.84;;;12.59;72.94
74615;BME280;63121;51.458;-0.110;2022-09-24T06:39:49;101465.81;;;12.66;72.57
74615;BME280;63121;51.458;-0.110;2022-09-24T06:42:14;101467.56;;;12.64;72.79
74615;BME280;63121;51.458;-0.110;2022-09-24T06:44:40;101469.31;;;12.62;72.71
74615;BME280;63121;51.458;-0.110;2022-09-24T06:47:06;101470.25;;;12.52;73.05
74615;BME280;63121;51.458;-0.110;2022-09-24T06:49:31;101469.31;;;12.62;73.15
74615;BME280;63121;51.458;-0.110;2022-09-24T06:51:57;101473.41;;;12.89;71.94
74615;BME280;63121;51.458;-0.110;2022-09-24T06:54:23;101479.41;;;12.97;71.30
74615;BME280;63121;51.458;-0.110;2022-09-24T06:56:49;101487.91;;;13.09;71.05
74615;BME280;63121;51.458;-0.110;2022-09-24T06:59:15;101492.25;;;13.10;70.97
74615;BME280;63121;51.458;-0.110;2022-09-24T07:01:40;101492.16;;;13.19;70.27
74615;BME280;63121;51.458;-0.110;2022-09-24T07:04:06;101486.97;;;13.20;69.98
74615;BME280;63121;51.458;-0.110;2022-09-24T07:06:33;101495.56;;;13.22;70.36
74615;BME280;63121;51.458;-0.110;2022-09-24T07:09:18;101501.72;;;13.14;70.68
74615;BME280;63121;51.458;-0.110;2022-09-24T07:11:44;101506.72;;;13.32;70.18
74615;BME280;63121;51.458;-0.110;2022-09-24T07:14:11;101507.66;;;13.23;70.00
74615;BME280;63121;51.458;-0.110;2022-09-24T07:16:36;101511.13;;;13.29;70.16
74615;BME280;63121;51.458;-0.110;2022-09-24T07:19:02;101506.81;;;13.23;70.23
74615;BME280;63121;51.458;-0.110;2022-09-24T07:21:27;101508.41;;;13.38;69.84
74615;BME280;63121;51.458;-0.110;2022-09-24T07:23:53;101511.91;;;13.37;69.76
74615;BME280;63121;51.458;-0.110;2022-09-24T07:26:18;101512.09;;;13.14;70.51
74615;BME280;63121;51.458;-0.110;2022-09-24T07:28:43;101507.59;;;13.34;69.83
74615;BME280;63121;51.458;-0.110;2022-09-24T07:31:09;101512.66;;;13.47;69.42
74615;BME280;63121;51.458;-0.110;2022-09-24T07:33:34;101510.88;;;13.52;69.75
74615;BME280;63121;51.458;-0.110;2022-09-24T07:36:04;101514.94;;;13.74;68.62
74615;BME280;63121;51.458;-0.110;2022-09-24T07:38:31;101505.50;;;13.69;68.86
74615;BME280;63121;51.458;-0.110;2022-09-24T07:40:57;101508.00;;;13.78;68.68
74615;BME280;63121;51.458;-0.110;2022-09-24T07:43:23;101514.09;;;13.72;68.99
74615;BME280;63121;51.458;-0.110;2022-09-24T07:45:49;101511.22;;;13.95;68.23
74615;BME280;63121;51.458;-0.110;2022-09-24T07:48:14;101516.47;;;13.94;68.50
74615;BME280;63121;51.458;-0.110;2022-09-24T07:50:41;101512.81;;;14.07;67.90
74615;BME280;63121;51.458;-0.110;2022-09-24T07:53:09;101523.09;;;14.16;67.77
74615;BME280;63121;51.458;-0.110;2022-09-24T07:55:35;101525.75;;;14.10;67.70
74615;BME280;63121;51.458;-0.110;2022-09-24T07:58:05;101529.94;;;14.20;67.52
74615;BME280;63121;51.458;-0.110;2022-09-24T08:00:32;101528.00;;;14.38;67.14
74615;BME280;63121;51.458;-0.110;2022-09-24T08:02:57;101523.44;;;14.57;66.34
74615;BME280;63121;51.458;-0.110;2022-09-24T08:05:23;101534.34;;;14.79;65.86
74615;BME280;63121;51.458;-0.110;2022-09-24T08:07:54;101536.84;;;14.87;65.32
74615;BME280;63121;51.458;-0.110;2022-09-24T08:10:20;101542.91;;;14.86;64.88
74615;BME280;63121;51.458;-0.110;2022-09-24T08:12:45;101540.44;;;14.78;65.69
74615;BME280;63121;51.458;-0.110;2022-09-24T08:15:11;101553.72;;;14.59;65.97
74615;BME280;63121;51.458;-0.110;2022-09-24T08:17:36;101544.03;;;14.69;65.71
74615;BME280;63121;51.458;-0.110;2022-09-24T08:20:02;101559.59;;;14.72;66.25
74615;BME280;63121;51.458;-0.110;2022-09-24T08:22:27;101556.31;;;14.59;66.74
74615;BME280;63121;51.458;-0.110;2022-09-24T08:24:52;101564.63;;;14.83;66.25
74615;BME280;63121;51.458;-0.110;2022-09-24T08:27:19;101567.63;;;15.11;65.44
74615;BME280;63121;51.458;-0.110;2022-09-24T08:29:45;101561.50;;;15.17;65.77
74615;BME280;63121;51.458;-0.110;2022-09-24T08:32:10;101564.84;;;15.22;65.75
74615;BME280;63121;51.458;-0.110;2022-09-24T08:34:37;101569.47;;;15.04;66.23
74615;BME280;63121;51.458;-0.110;2022-09-24T08:37:07;101566.47;;;15.31;65.63
74615;BME280;63121;51.458;-0.110;2022-09-24T08:39:33;101560.31;;;15.35;65.36
74615;BME280;63121;51.458;-0.110;2022-09-24T08:42:02;101565.72;;;15.22;66.11
74615;BME280;63121;51.458;-0.110;2022-09-24T08:44:43;101568.34;;;15.21;66.16
74615;BME280;63121;51.458;-0.110;2022-09-24T08:47:38;101567.00;;;15.50;65.17
74615;BME280;63121;51.458;-0.110;2022-09-24T08:50:14;101565.28;;;15.47;65.26
74615;BME280;63121;51.458;-0.110;2022-09-24T08:55:48;101568.41;;;15.18;65.64
74615;BME280;63121;51.458;-0.110;2022-09-24T09:07:18;101577.31;;;16.02;63.34
74615;BME280;63121;51.458;-0.110;2022-09-24T09:09:59;101577.31;;;16.02;62.43
74615;BME280;63121;51.458;-0.110;2022-09-24T09:12:36;101568.25;;;15.77;63.50
74615;BME280;63121;51.458;-0.110;2022-09-24T09:15:08;101576.59;;;15.94;62.58
74615;BME280;63121;51.458;-0.110;2022-09-24T09:17:49;101566.81;;;16.07;62.06
74615;BME280;63121;51.458;-0.110;2022-09-24T09:20:19;101557.72;;;16.25;61.22
74615;BME280;63121;51.458;-0.110;2022-09-24T09:22:50;101567.72;;;16.04;61.86
74615;BME280;63121;51.458;-0.110;2022-09-24T09:25:23;101574.41;;;15.71;62.85
74615;BME280;63121;51.458;-0.110;2022-09-24T09:28:21;101565.13;;;16.04;61.30
74615;BME280;63121;51.458;-0.110;2022-09-24T09:44:51;101568.78;;;16.75;59.44
74615;BME280;63121;51.458;-0.110;2022-09-24T09:47:25;101566.84;;;16.86;59.08
74615;BME280;63121;51.458;-0.110;2022-09-24T09:49:56;101573.34;;;17.04;58.00
74615;BME280;63121;51.458;-0.110;2022-09-24T09:52:27;101572.25;;;17.13;58.08
74615;BME280;63121;51.458;-0.110;2022-09-24T09:54:54;101570.31;;;16.87;59.00
74615;BME280;63121;51.458;-0.110;2022-09-24T09:57:22;101569.25;;;16.94;58.41
74615;BME280;63121;51.458;-0.110;2022-09-24T09:59:49;101572.00;;;16.88;58.43
74615;BME280;63121;51.458;-0.110;2022-09-24T10:02:28;101570.06;;;16.96;58.18
74615;BME280;63121;51.458;-0.110;2022-09-24T10:04:57;101575.72;;;17.14;57.94
74615;BME280;63121;51.458;-0.110;2022-09-24T10:07:23;101576.03;;;17.01;58.63
74615;BME280;63121;51.458;-0.110;2022-09-24T10:10:18;101574.44;;;17.30;57.45
74615;BME280;63121;51.458;-0.110;2022-09-24T10:12:44;101567.22;;;17.73;56.31
74615;BME280;63121;51.458;-0.110;2022-09-24T10:17:39;101563.84;;;18.32;54.87
74615;BME280;63121;51.458;-0.110;2022-09-24T10:20:16;101572.97;;;18.46;54.45
74615;BME280;63121;51.458;-0.110;2022-09-24T10:23:00;101569.22;;;18.85;53.36
74615;BME280;63121;51.458;-0.110;2022-09-24T10:25:28;101566.00;;;19.03;52.39
74615;BME280;63121;51.458;-0.110;2022-09-24T10:28:06;101564.88;;;19.12;51.92
74615;BME280;63121;51.458;-0.110;2022-09-24T10:30:55;101560.63;;;18.81;51.65
74615;BME280;63121;51.458;-0.110;2022-09-24T10:33:21;101563.44;;;18.45;52.40
74615;BME280;63121;51.458;-0.110;2022-09-24T10:35:47;101556.50;;;18.44;52.94
74615;BME280;63121;51.458;-0.110;2022-09-24T10:38:20;101553.63;;;17.94;52.69
74615;BME280;63121;51.458;-0.110;2022-09-24T10:40:49;101547.94;;;18.11;51.97
74615;BME280;63121;51.458;-0.110;2022-09-24T10:43:20;101553.91;;;18.15;52.17
74615;BME280;63121;51.458;-0.110;2022-09-24T10:48:34;101556.97;;;18.29;51.43
74615;BME280;63121;51.458;-0.110;2022-09-24T10:54:02;101553.63;;;18.24;51.63
74615;BME280;63121;51.458;-0.110;2022-09-24T10:56:40;101560.38;;;18.01;50.87
74615;BME280;63121;51.458;-0.110;2022-09-24T11:05:03;101565.75;;;17.97;49.82
74615;BME280;63121;51.458;-0.110;2022-09-24T11:07:43;101559.25;;;18.10;50.06
74615;BME280;63121;51.458;-0.110;2022-09-24T11:13:13;101551.84;;;18.82;49.93
74615;BME280;63121;51.458;-0.110;2022-09-24T11:18:52;101554.03;;;18.68;49.66
74615;BME280;63121;51.458;-0.110;2022-09-24T11:27:30;101556.03;;;18.60;48.96
74615;BME280;63121;51.458;-0.110;2022-09-24T11:30:13;101553.63;;;19.08;48.68
74615;BME280;63121;51.458;-0.110;2022-09-24T11:37:59;101555.69;;;19.25;47.75
74615;BME280;63121;51.458;-0.110;2022-09-24T11:43:34;101559.81;;;19.06;46.25
74615;BME280;63121;51.458;-0.110;2022-09-24T11:48:58;101554.25;;;19.42;45.74
74615;BME280;63121;51.458;-0.110;2022-09-24T11:51:54;101550.94;;;19.87;45.19
74615;BME280;63121;51.458;-0.110;2022-09-24T12:00:18;101551.69;;;19.14;47.97
74615;BME280;63121;51.458;-0.110;2022-09-24T12:02:49;101543.34;;;19.29;47.90
74615;BME280;63121;51.458;-0.110;2022-09-24T12:05:27;101551.06;;;19.07;47.00
74615;BME280;63121;51.458;-0.110;2022-09-24T12:10:45;101539.13;;;19.25;46.80
74615;BME280;63121;51.458;-0.110;2022-09-24T12:13:17;101544.16;;;19.04;46.82
74615;BME280;63121;51.458;-0.110;2022-09-24T12:15:51;101539.09;;;19.00;46.73
74615;BME280;63121;51.458;-0.110;2022-09-24T12:18:26;101543.28;;;19.30;46.07
74615;BME280;63121;51.458;-0.110;2022-09-24T12:20:57;101542.97;;;19.65;45.08
74615;BME280;63121;51.458;-0.110;2022-09-24T12:23:28;101543.88;;;19.39;45.92
74615;BME280;63121;51.458;-0.110;2022-09-24T12:25:57;101544.53;;;19.69;45.58
74615;BME280;63121;51.458;-0.110;2022-09-24T12:28:26;101539.63;;;20.08;44.80
74615;BME280;63121;51.458;-0.110;2022-09-24T12:31:41;101539.84;;;20.26;44.30
74615;BME280;63121;51.458;-0.110;2022-09-24T12:34:45;101535.28;;;20.31;44.10
74615;BME280;63121;51.458;-0.110;2022-09-24T12:37:18;101534.53;;;20.05;43.65
74615;BME280;63121;51.458;-0.110;2022-09-24T12:42:29;101547.09;;;19.47;44.86
74615;BME280;63121;51.458;-0.110;2022-09-24T12:44:58;101545.28;;;19.74;44.78
74615;BME280;63121;51.458;-0.110;2022-09-24T12:47:27;101547.66;;;19.55;45.49
74615;BME280;63121;51.458;-0.110;2022-09-24T12:49:57;101547.03;;;19.48;45.47
74615;BME280;63121;51.458;-0.110;2022-09-24T12:52:27;101545.69;;;20.10;44.50
74615;BME280;63121;51.458;-0.110;2022-09-24T12:54:58;101535.78;;;19.95;44.60
74615;BME280;63121;51.458;-0.110;2022-09-24T12:57:48;101540.16;;;19.95;44.34
74615;BME280;63121;51.458;-0.110;2022-09-24T13:02:56;101546.53;;;20.11;44.27
74615;BME280;63121;51.458;-0.110;2022-09-24T13:10:55;101535.94;;;20.14;43.98
74615;BME280;63121;51.458;-0.110;2022-09-24T13:13:25;101534.75;;;19.76;44.32
74615;BME280;63121;51.458;-0.110;2022-09-24T13:16:17;101543.81;;;19.90;44.30
74615;BME280;63121;51.458;-0.110;2022-09-24T13:18:51;101535.03;;;19.66;45.43
74615;BME280;63121;51.458;-0.110;2022-09-24T13:21:21;101530.47;;;20.20;43.86
74615;BME280;63121;51.458;-0.110;2022-09-24T13:23:49;101534.13;;;20.38;43.36
74615;BME280;63121;51.458;-0.110;2022-09-24T13:26:35;101541.75;;;20.44;43.51
74615;BME280;63121;51.458;-0.110;2022-09-24T13:29:05;101533.69;;;20.73;43.00
74615;BME280;63121;51.458;-0.110;2022-09-24T13:31:59;101526.91;;;20.67;42.25
74615;BME280;63121;51.458;-0.110;2022-09-24T13:34:28;101536.84;;;20.59;42.24
74615;BME280;63121;51.458;-0.110;2022-09-24T13:37:01;101535.00;;;20.39;41.46
74615;BME280;63121;51.458;-0.110;2022-09-24T13:42:38;101527.56;;;20.94;40.38
74615;BME280;63121;51.458;-0.110;2022-09-24T13:45:03;101520.09;;;21.26;39.89
74615;BME280;63121;51.458;-0.110;2022-09-24T13:50:07;101523.03;;;21.39;39.34
74615;BME280;63121;51.458;-0.110;2022-09-24T13:52:41;101527.97;;;21.26;38.74
74615;BME280;63121;51.458;-0.110;2022-09-24T13:55:17;101532.94;;;21.73;38.32
74615;BME280;63121;51.458;-0.110;2022-09-24T13:57:46;101530.19;;;21.95;37.98
74615;BME280;63121;51.458;-0.110;2022-09-24T14:00:17;101514.94;;;22.59;36.04
74615;BME280;63121;51.458;-0.110;2022-09-24T14:03:16;101520.88;;;22.99;35.03
74615;BME280;63121;51.458;-0.110;2022-09-24T14:05:44;101521.66;;;23.69;34.52
74615;BME280;63121;51.458;-0.110;2022-09-24T14:08:12;101521.97;;;23.80;33.51
74615;BME280;63121;51.458;-0.110;2022-09-24T14:10:39;101532.78;;;24.23;33.94
74615;BME280;63121;51.458;-0.110;2022-09-24T14:13:18;101537.63;;;23.32;36.04
74615;BME280;63121;51.458;-0.110;2022-09-24T14:15:59;101538.31;;;22.09;38.36
74615;BME280;63121;51.458;-0.110;2022-09-24T14:18:31;101537.41;;;21.09;41.12
74615;BME280;63121;51.458;-0.110;2022-09-24T14:21:03;101538.47;;;20.39;42.15
74615;BME280;63121;51.458;-0.110;2022-09-24T14:23:57;101537.00;;;20.08;41.65
74615;BME280;63121;51.458;-0.110;2022-09-24T14:26:30;101553.66;;;19.59;42.82
74615;BME280;63121;51.458;-0.110;2022-09-24T14:28:59;101547.53;;;19.58;42.98
74615;BME280;63121;51.458;-0.110;2022-09-24T14:31:27;101543.44;;;19.51;43.39
74615;BME280;63121;51.458;-0.110;2022-09-24T14:33:53;101545.31;;;19.47;44.37
74615;BME280;63121;51.458;-0.110;2022-09-24T14:36:18;101545.00;;;19.32;44.81